Terminal Aerodrome Forecast
Issued by NWS

Home | Current Version | Previous Version | Text Only | Print | Product List | Glossary On
Versions: 1 2 3 4 5 6 7 8 9 10 11 12 13 14
724
FTUS43 KGRB 291730
TAFCWA
TAF
KCWA 291730Z 2918/3018 27015G23KT P6SM VCSH SCT022 OVC045
      TEMPO 2918/2922 3SM SHRA BR OVC030
     FM292200 27013G21KT P6SM VCSH OVC060
     FM300200 28010G16KT P6SM BKN050
     FM300300 27008KT P6SM BKN060
     FM301300 27010G15KT P6SM BKN025=

USA.gov is the U.S. government's official web portal to all federal, state and local government web resources and services.